Time;durP1;ratioP1;P1;durP2;ratioP2;P2;SDS_P1;SDS_P2;PMS_P1;PMS_P2;Temp;Humidity;BMP_temperature;BMP_pressure;BME280_temperature;BME280_humidity;BME280_pressure;Samples;Min_cycle;Max_cycle;Signal;HPM_P1;HPM_P2
2023/01/02 00:01:55;;;;;;;8.15;2.88;;;9.50;99.90;;;;;;5051476;28;21532;-71
2023/01/02 00:04:21;;;;;;;9.02;2.50;;;9.50;99.90;;;;;;5050233;28;20053;-72
2023/01/02 00:06:47;;;;;;;7.63;2.50;;;9.50;99.90;;;;;;5054651;28;20054;-71
2023/01/02 00:09:12;;;;;;;6.55;2.17;;;9.50;99.90;;;;;;5067012;28;20133;-72
2023/01/02 00:11:38;;;;;;;6.63;2.30;;;9.50;99.90;;;;;;5036434;28;20049;-72
2023/01/02 00:14:04;;;;;;;7.72;2.30;;;9.50;99.90;;;;;;5056824;28;20052;-71
2023/01/02 00:16:30;;;;;;;6.68;2.40;;;9.30;99.90;;;;;;5045806;28;20055;-71
2023/01/02 00:18:55;;;;;;;8.25;2.45;;;9.50;99.90;;;;;;5053347;28;20042;-71
2023/01/02 00:21:21;;;;;;;6.88;2.33;;;9.50;99.90;;;;;;5063357;28;20040;-71
2023/01/02 00:23:47;;;;;;;9.70;2.85;;;9.50;99.90;;;;;;5051074;28;20517;-71
2023/01/02 00:26:12;;;;;;;7.15;2.47;;;9.50;99.90;;;;;;5055202;28;20130;-71
2023/01/02 00:28:38;;;;;;;7.15;2.80;;;9.50;99.90;;;;;;5049479;28;20556;-71
2023/01/02 00:31:09;;;;;;;6.25;2.80;;;9.50;99.90;;;;;;5056371;28;20049;-71
2023/01/02 00:33:35;;;;;;;7.05;3.25;;;9.50;99.90;;;;;;5046798;28;20036;-71
2023/01/02 00:36:10;;;;;;;8.50;3.33;;;9.50;99.90;;;;;;5049140;28;20059;-71
2023/01/02 00:38:36;;;;;;;8.27;3.55;;;9.50;99.90;;;;;;5051795;28;20144;-71
2023/01/02 00:41:03;;;;;;;9.75;3.65;;;9.50;99.90;;;;;;5065756;28;20044;-71
2023/01/02 00:43:29;;;;;;;9.82;4.05;;;9.50;99.90;;;;;;5031986;28;20048;-71
2023/01/02 00:45:55;;;;;;;10.75;4.53;;;9.50;99.90;;;;;;5054781;28;20720;-70
2023/01/02 00:48:21;;;;;;;12.55;5.15;;;9.60;99.90;;;;;;5045111;28;20055;-70
2023/01/02 00:50:47;;;;;;;11.98;4.97;;;9.60;99.90;;;;;;5040761;28;20577;-71
2023/01/02 00:53:13;;;;;;;13.45;5.53;;;9.60;99.90;;;;;;5049232;28;20048;-68
2023/01/02 00:55:39;;;;;;;11.65;4.90;;;9.60;99.90;;;;;;5072404;28;20044;-70
2023/01/02 00:58:05;;;;;;;8.85;4.85;;;9.60;99.90;;;;;;5043402;28;20052;-69
2023/01/02 01:00:31;;;;;;;8.57;5.15;;;9.70;99.90;;;;;;5055368;28;20051;-70
2023/01/02 01:02:58;;;;;;;12.25;5.70;;;9.70;99.90;;;;;;5048201;28;20123;-70
2023/01/02 01:05:24;;;;;;;8.60;4.75;;;9.70;99.90;;;;;;5064943;28;21565;-70
2023/01/02 01:07:51;;;;;;;11.48;5.80;;;9.70;99.90;;;;;;5048351;28;20040;-70
2023/01/02 01:10:16;;;;;;;10.93;5.70;;;9.80;99.90;;;;;;5038535;28;20093;-70
2023/01/02 01:12:42;;;;;;;8.48;4.47;;;9.90;99.90;;;;;;5036136;28;20060;-70
2023/01/02 01:15:08;;;;;;;8.20;4.55;;;9.80;99.90;;;;;;5064004;28;20052;-70
2023/01/02 01:17:34;;;;;;;8.35;4.75;;;9.90;99.90;;;;;;5063783;28;20051;-70
2023/01/02 01:20:00;;;;;;;10.50;4.63;;;9.90;99.90;;;;;;5066253;28;20044;-70
2023/01/02 01:22:25;;;;;;;8.75;4.43;;;9.90;99.90;;;;;;5055122;28;20075;-70
2023/01/02 01:24:51;;;;;;;8.07;4.57;;;9.90;99.90;;;;;;5047521;28;20058;-70
2023/01/02 01:27:17;;;;;;;8.75;5.03;;;10.00;99.90;;;;;;5064650;28;20067;-70
2023/01/02 01:29:43;;;;;;;9.48;4.68;;;10.00;99.90;;;;;;5049890;28;20151;-70
2023/01/02 01:32:08;;;;;;;10.02;4.85;;;10.00;99.90;;;;;;5054143;28;20079;-70
2023/01/02 01:34:34;;;;;;;8.63;4.85;;;10.10;99.90;;;;;;5067283;28;20040;-70
2023/01/02 01:37:00;;;;;;;8.30;4.53;;;10.10;99.90;;;;;;5050489;28;20044;-70
2023/01/02 01:39:25;;;;;;;9.68;5.10;;;10.10;99.90;;;;;;5071433;28;20110;-71
2023/01/02 01:41:51;;;;;;;9.63;5.45;;;10.40;99.90;;;;;;5046034;28;20052;-71
2023/01/02 01:44:40;;;;;;;10.10;5.35;;;10.10;99.90;;;;;;5051938;28;20051;-70
2023/01/02 01:47:16;;;;;;;9.60;5.28;;;10.10;99.90;;;;;;5075477;28;20110;-72
2023/01/02 01:49:43;;;;;;;8.00;5.25;;;10.20;99.90;;;;;;5054224;28;20341;-70
2023/01/02 01:52:13;;;;;;;9.43;5.65;;;10.10;99.90;;;;;;5072775;28;20147;-70
2023/01/02 01:54:47;;;;;;;10.23;5.30;;;10.10;99.90;;;;;;5072081;28;20051;-70
2023/01/02 01:57:56;;;;;;;11.43;6.00;;;10.20;99.90;;;;;;5041990;28;20044;-69
2023/01/02 02:00:21;;;;;;;11.25;5.90;;;10.20;99.90;;;;;;4969539;28;20041;-70
2023/01/02 02:02:51;;;;;;;9.70;6.00;;;10.20;99.90;;;;;;4985261;28;20608;-70
2023/01/02 02:05:21;;;;;;;11.98;6.03;;;10.20;99.90;;;;;;4997136;28;20528;-70
2023/01/02 02:07:57;;;;;;;9.85;5.82;;;10.50;99.90;;;;;;5069035;28;20040;-69
2023/01/02 02:10:23;;;;;;;10.10;6.45;;;10.30;99.90;;;;;;5049998;28;20052;-70
2023/01/02 02:12:49;;;;;;;10.23;5.97;;;10.30;99.90;;;;;;5066795;28;20825;-69
2023/01/02 02:15:20;;;;;;;9.88;6.50;;;10.30;99.90;;;;;;5035843;28;20086;-70
2023/01/02 02:18:12;;;;;;;9.82;6.10;;;10.30;99.90;;;;;;5046377;28;20044;-69
2023/01/02 02:20:41;;;;;;;;;;;10.30;99.90;;;;;;5068208;28;20040;-70
2023/01/02 02:23:18;;;;;;;10.70;6.85;;;10.30;99.90;;;;;;5030499;28;19924;-70
2023/01/02 02:26:02;;;;;;;11.02;6.80;;;10.30;99.90;;;;;;5051611;28;20689;-70
2023/01/02 02:28:31;;;;;;;12.52;7.45;;;10.30;99.90;;;;;;5040142;28;20051;-70
2023/01/02 02:30:58;;;;;;;14.77;8.23;;;10.40;99.90;;;;;;5045123;28;20037;-69
2023/01/02 02:33:42;;;;;;;12.98;8.60;;;10.40;99.90;;;;;;5049100;28;20109;-69
2023/01/02 02:36:36;;;;;;;13.32;8.30;;;10.40;99.90;;;;;;5050462;28;20043;-69
2023/01/02 02:39:34;;;;;;;11.45;7.63;;;10.50;99.90;;;;;;5046897;28;20055;-71
2023/01/02 02:42:10;;;;;;;19.05;8.25;;;10.40;99.90;;;;;;5045249;28;20108;-69
2023/01/02 02:44:57;;;;;;;12.90;8.43;;;10.50;99.90;;;;;;5050205;28;20063;-70
2023/01/02 02:47:36;;;;;;;13.85;8.90;;;10.50;99.90;;;;;;5049477;28;20561;-70
2023/01/02 02:50:15;;;;;;;11.68;8.18;;;10.50;99.90;;;;;;5054789;28;20044;-69
2023/01/02 02:52:53;;;;;;;15.07;8.35;;;10.50;99.90;;;;;;5050841;28;21874;-69
2023/01/02 02:55:44;;;;;;;13.80;8.07;;;10.50;99.90;;;;;;5052884;28;20056;-70
2023/01/02 02:58:12;;;;;;;14.38;8.77;;;10.50;99.90;;;;;;5067869;28;20048;-70
2023/01/02 03:00:38;;;;;;;12.70;8.40;;;10.50;99.90;;;;;;5055338;28;20443;-68
2023/01/02 03:03:31;;;;;;;15.23;8.77;;;10.50;99.90;;;;;;5057614;28;20043;-70
2023/01/02 03:06:15;;;;;;;12.30;8.32;;;10.60;99.90;;;;;;5056268;28;20484;-69
2023/01/02 03:08:44;;;;;;;14.45;8.98;;;10.60;99.90;;;;;;5051557;28;20044;-69
2023/01/02 03:11:10;;;;;;;13.10;8.88;;;10.60;99.90;;;;;;5049350;28;20895;-70
2023/01/02 03:13:50;;;;;;;12.25;8.27;;;10.60;99.90;;;;;;5040451;28;20078;-69
2023/01/02 03:16:32;;;;;;;13.65;8.85;;;10.70;99.90;;;;;;5013456;28;20043;-69
2023/01/02 03:19:00;;;;;;;12.20;8.23;;;10.60;99.90;;;;;;5048455;28;20119;-70
2023/01/02 03:21:54;;;;;;;14.40;8.82;;;10.70;99.90;;;;;;5022131;28;20098;-70
2023/01/02 03:24:23;;;;;;;15.88;8.32;;;10.70;99.90;;;;;;5032322;28;20057;-70
2023/01/02 03:26:54;;;;;;;15.80;9.05;;;10.70;99.90;;;;;;5019755;28;20048;-69
2023/01/02 03:29:35;;;;;;;12.77;7.90;;;10.70;99.90;;;;;;5049022;28;20052;-70
2023/01/02 03:32:04;;;;;;;13.73;8.93;;;10.70;99.90;;;;;;5038639;28;20040;-70
2023/01/02 03:34:35;;;;;;;14.60;8.43;;;10.70;99.90;;;;;;5055257;28;20040;-70
2023/01/02 03:37:09;;;;;;;13.65;9.32;;;10.70;99.90;;;;;;5036442;28;20697;-70
2023/01/02 03:39:41;;;;;;;13.95;9.35;;;10.70;99.90;;;;;;5040744;28;20075;-70
2023/01/02 03:42:28;;;;;;;13.70;8.93;;;10.70;99.90;;;;;;5026940;28;20124;-70
2023/01/02 03:44:54;;;;;;;16.02;9.77;;;10.70;99.90;;;;;;5053498;28;20045;-70
2023/01/02 03:47:27;;;;;;;15.20;9.57;;;10.70;99.90;;;;;;5032688;28;20643;-69
2023/01/02 03:49:54;;;;;;;16.77;10.18;;;10.80;99.90;;;;;;5051884;28;20083;-70
2023/01/02 03:52:20;;;;;;;17.58;10.50;;;10.80;99.90;;;;;;5048533;28;20063;-70
2023/01/02 03:54:47;;;;;;;18.63;11.52;;;10.80;99.90;;;;;;5033203;28;20040;-71
2023/01/02 03:57:26;;;;;;;22.13;11.75;;;10.80;99.90;;;;;;5049058;28;20101;-70
2023/01/02 04:00:00;;;;;;;19.42;11.80;;;10.80;99.90;;;;;;5028315;28;20083;-71
2023/01/02 04:02:47;;;;;;;19.73;12.77;;;10.80;99.90;;;;;;5029506;28;20535;-70
2023/01/02 04:05:20;;;;;;;21.38;11.70;;;10.80;99.90;;;;;;5051041;28;20045;-70
2023/01/02 04:07:55;;;;;;;27.67;12.68;;;10.90;99.90;;;;;;5034068;28;20044;-69
2023/01/02 04:10:22;;;;;;;26.52;11.73;;;10.90;99.90;;;;;;5046253;28;20045;-71
2023/01/02 04:12:53;;;;;;;23.73;12.65;;;10.90;99.90;;;;;;5061151;28;20052;-70
2023/01/02 04:15:25;;;;;;;26.30;13.68;;;10.90;99.90;;;;;;5057642;28;20048;-70
2023/01/02 04:18:00;;;;;;;21.70;12.43;;;10.90;99.90;;;;;;5076381;28;20043;-70
2023/01/02 04:20:32;;;;;;;21.00;12.27;;;10.90;99.90;;;;;;5072531;28;20040;-70
2023/01/02 04:23:12;;;;;;;20.13;12.55;;;10.90;99.90;;;;;;5046352;28;20049;-71
2023/01/02 04:25:51;;;;;;;25.27;12.40;;;10.90;99.90;;;;;;5068988;28;20052;-70
2023/01/02 04:28:23;;;;;;;21.98;11.93;;;10.90;99.90;;;;;;5036253;28;20055;-70
2023/01/02 04:31:13;;;;;;;21.67;11.60;;;10.90;99.90;;;;;;5052888;28;20036;-71
2023/01/02 04:33:44;;;;;;;21.23;12.48;;;10.90;99.90;;;;;;5055808;28;20047;-70
2023/01/02 04:36:11;;;;;;;23.80;11.73;;;10.90;99.90;;;;;;5069116;28;20048;-70
2023/01/02 04:38:37;;;;;;;21.38;12.60;;;10.90;99.90;;;;;;5065611;28;20043;-70
2023/01/02 04:41:05;;;;;;;22.20;12.52;;;10.90;99.90;;;;;;5049551;28;20067;-70
2023/01/02 04:43:31;;;;;;;23.23;13.18;;;10.90;99.90;;;;;;5053060;28;20044;-70
2023/01/02 04:45:57;;;;;;;23.10;13.38;;;10.90;99.90;;;;;;5051478;28;20447;-71
2023/01/02 04:48:22;;;;;;;25.83;13.15;;;10.90;99.90;;;;;;5066695;28;20048;-71
2023/01/02 04:50:48;;;;;;;22.88;12.95;;;10.90;99.90;;;;;;5066263;28;20515;-70
2023/01/02 04:53:14;;;;;;;21.90;13.07;;;10.90;99.90;;;;;;5065952;28;20036;-70
2023/01/02 04:55:40;;;;;;;21.17;12.60;;;10.90;99.90;;;;;;5053599;28;20055;-70
2023/01/02 04:58:06;;;;;;;20.70;12.45;;;11.00;99.90;;;;;;5031657;28;20048;-69
2023/01/02 05:00:33;;;;;;;18.63;11.50;;;10.90;99.90;;;;;;5047999;28;20141;-70
2023/01/02 05:03:01;;;;;;;21.00;11.10;;;10.90;99.90;;;;;;5048750;28;20039;-70
2023/01/02 05:05:27;;;;;;;17.35;10.63;;;10.90;99.90;;;;;;5065064;28;22054;-71
2023/01/02 05:07:53;;;;;;;22.85;10.38;;;10.90;99.90;;;;;;5055583;28;20036;-71
2023/01/02 05:10:21;;;;;;;15.35;9.65;;;10.90;99.90;;;;;;5035688;28;20059;-71
2023/01/02 05:12:47;;;;;;;17.73;9.57;;;11.00;99.90;;;;;;5052821;28;20718;-71
2023/01/02 05:15:13;;;;;;;14.35;8.85;;;11.00;99.90;;;;;;5052065;28;20055;-70
2023/01/02 05:17:40;;;;;;;12.48;8.70;;;11.00;99.90;;;;;;5034794;28;20162;-70
2023/01/02 05:20:09;;;;;;;15.98;8.02;;;11.00;99.90;;;;;;5048755;28;20036;-70
2023/01/02 05:25:23;;;;;;;14.48;7.22;;;11.00;99.90;;;;;;5051315;28;20428;-71
2023/01/02 05:27:53;;;;;;;14.25;6.53;;;11.00;99.90;;;;;;5031524;28;20046;-70
2023/01/02 05:30:19;;;;;;;10.82;6.07;;;10.90;99.90;;;;;;5030174;28;20178;-73
2023/01/02 05:32:45;;;;;;;11.18;6.15;;;11.00;99.90;;;;;;5043071;28;20052;-71
2023/01/02 05:35:11;;;;;;;10.18;6.18;;;11.20;99.90;;;;;;5048463;28;21038;-71
2023/01/02 05:37:37;;;;;;;10.80;6.20;;;11.00;99.90;;;;;;5046837;28;20039;-71
2023/01/02 05:40:03;;;;;;;9.82;5.40;;;11.00;99.90;;;;;;5051027;28;20031;-71
2023/01/02 05:42:29;;;;;;;9.70;5.28;;;11.00;99.90;;;;;;5051677;28;20036;-71
2023/01/02 05:44:54;;;;;;;11.90;5.30;;;11.00;99.90;;;;;;5071701;28;20048;-71
2023/01/02 05:47:20;;;;;;;7.90;4.75;;;11.00;99.90;;;;;;5056178;28;20059;-71
2023/01/02 05:49:46;;;;;;;7.85;4.65;;;11.00;99.90;;;;;;5053803;28;20036;-71
2023/01/02 05:52:12;;;;;;;8.60;4.75;;;11.00;99.90;;;;;;5069294;28;20040;-71
2023/01/02 05:54:37;;;;;;;8.25;4.40;;;11.00;99.90;;;;;;5046813;28;20075;-71
2023/01/02 05:57:03;;;;;;;6.90;4.50;;;11.00;99.90;;;;;;5066629;28;20124;-71
2023/01/02 05:59:29;;;;;;;7.30;4.63;;;11.00;99.90;;;;;;5047218;28;20052;-71
2023/01/02 06:01:54;;;;;;;7.20;4.35;;;11.00;99.90;;;;;;5064084;28;20076;-71
2023/01/02 06:04:20;;;;;;;7.82;4.55;;;11.00;99.90;;;;;;5034726;28;20045;-71
2023/01/02 06:06:46;;;;;;;8.13;4.53;;;11.00;99.90;;;;;;5067203;28;20036;-71
2023/01/02 06:09:13;;;;;;;8.15;4.80;;;11.10;99.90;;;;;;5051283;28;20036;-71
2023/01/02 06:11:39;;;;;;;7.32;4.38;;;11.00;99.90;;;;;;5052467;28;20033;-71
2023/01/02 06:14:05;;;;;;;7.82;4.78;;;11.00;99.90;;;;;;5070190;28;20551;-71
2023/01/02 06:16:31;;;;;;;7.18;4.60;;;11.00;99.90;;;;;;5048002;28;20121;-71
2023/01/02 06:18:57;;;;;;;8.27;5.18;;;11.00;99.90;;;;;;5035679;28;20082;-72
2023/01/02 06:21:22;;;;;;;7.50;5.20;;;11.00;99.90;;;;;;5050785;28;20264;-71
2023/01/02 06:23:53;;;;;;;8.55;5.53;;;11.00;99.90;;;;;;5069971;28;20041;-72
2023/01/02 06:26:20;;;;;;;9.45;5.63;;;11.00;99.90;;;;;;5070807;28;20044;-71
2023/01/02 06:28:50;;;;;;;9.55;6.20;;;11.00;99.90;;;;;;5035247;28;20056;-72
2023/01/02 06:31:17;;;;;;;10.95;6.20;;;11.00;99.90;;;;;;5071807;28;20044;-72
2023/01/02 06:33:43;;;;;;;10.90;6.53;;;11.00;99.90;;;;;;5055116;28;20796;-72
2023/01/02 06:36:15;;;;;;;10.23;6.50;;;11.00;99.90;;;;;;5051188;28;21207;-70
2023/01/02 06:38:41;;;;;;;12.27;6.20;;;11.00;99.90;;;;;;5061215;28;20120;-75
2023/01/02 06:41:08;;;;;;;11.55;6.60;;;11.00;99.90;;;;;;5045089;28;20105;-75
2023/01/02 06:43:35;;;;;;;9.82;6.72;;;11.10;99.90;;;;;;5060072;28;20052;-75
2023/01/02 06:46:05;;;;;;;9.18;6.32;;;11.00;99.90;;;;;;5056715;28;20445;-75
2023/01/02 06:48:33;;;;;;;9.60;6.72;;;10.90;99.90;;;;;;5057722;28;20087;-74
2023/01/02 06:50:59;;;;;;;9.00;6.55;;;10.90;99.90;;;;;;5052316;28;20090;-75
2023/01/02 06:53:27;;;;;;;10.48;6.97;;;10.90;99.90;;;;;;5057506;28;20488;-75
2023/01/02 06:55:57;;;;;;;10.70;7.03;;;10.80;99.90;;;;;;5060687;28;20404;-74
2023/01/02 06:58:25;;;;;;;11.15;7.53;;;10.80;99.90;;;;;;5052337;28;20048;-75
2023/01/02 07:00:51;;;;;;;10.90;6.28;;;10.80;99.90;;;;;;5077099;28;20151;-76
2023/01/02 07:03:17;;;;;;;10.65;5.60;;;10.70;99.90;;;;;;5059695;28;20054;-74
2023/01/02 07:05:43;;;;;;;13.25;5.63;;;10.50;99.90;;;;;;5041165;28;20565;-75
2023/01/02 07:08:10;;;;;;;11.30;5.88;;;10.40;99.90;;;;;;5079854;28;20039;-76
2023/01/02 07:10:36;;;;;;;9.68;5.50;;;10.20;99.90;;;;;;5074082;28;20711;-75
2023/01/02 07:13:02;;;;;;;10.30;5.43;;;10.10;99.90;;;;;;5057309;28;20107;-75
2023/01/02 07:15:28;;;;;;;10.23;5.30;;;10.00;99.90;;;;;;5042287;28;20645;-75
2023/01/02 07:17:54;;;;;;;9.77;4.70;;;9.90;99.90;;;;;;5060639;28;20044;-74
2023/01/02 07:20:20;;;;;;;7.80;3.17;;;9.80;99.90;;;;;;5077282;28;21402;-75
2023/01/02 07:22:53;;;;;;;6.07;2.17;;;9.70;99.90;;;;;;5061546;28;20722;-74
2023/01/02 07:25:20;;;;;;;3.13;1.10;;;9.60;99.90;;;;;;5064272;28;20075;-74
2023/01/02 07:27:46;;;;;;;3.22;0.90;;;9.60;99.90;;;;;;5061122;28;20157;-74
2023/01/02 07:30:12;;;;;;;3.53;0.60;;;9.50;99.90;;;;;;5057551;28;20382;-74
2023/01/02 07:32:38;;;;;;;3.10;0.90;;;9.40;99.90;;;;;;5058507;28;20064;-74
2023/01/02 07:35:05;;;;;;;1.45;0.52;;;9.30;99.90;;;;;;5059730;28;20082;-74
2023/01/02 07:37:30;;;;;;;1.75;0.70;;;9.30;99.90;;;;;;5076179;28;20478;-74
2023/01/02 07:39:56;;;;;;;2.60;0.70;;;9.20;99.90;;;;;;5068362;28;20189;-74
2023/01/02 07:42:22;;;;;;;3.22;1.33;;;9.20;99.90;;;;;;5069164;28;20054;-72
2023/01/02 07:44:47;;;;;;;6.15;0.80;;;9.20;99.90;;;;;;5037932;28;20044;-74
2023/01/02 07:47:13;;;;;;;3.10;0.80;;;9.10;99.90;;;;;;5035391;28;20040;-74
2023/01/02 07:49:39;;;;;;;2.38;0.68;;;9.10;99.90;;;;;;5054394;28;20109;-74
2023/01/02 07:52:08;;;;;;;3.47;0.82;;;9.10;99.90;;;;;;5076242;28;20044;-70
2023/01/02 07:54:34;;;;;;;4.25;1.00;;;9.20;99.90;;;;;;5057595;28;20047;-70
2023/01/02 07:56:59;;;;;;;2.90;0.85;;;9.00;99.90;;;;;;5056186;28;20051;-70
2023/01/02 07:59:25;;;;;;;5.15;0.88;;;9.10;99.90;;;;;;5057963;28;20044;-70
2023/01/02 08:01:51;;;;;;;4.65;1.10;;;9.00;99.90;;;;;;5056700;28;20044;-70
2023/01/02 08:04:16;;;;;;;4.43;0.80;;;8.90;99.90;;;;;;5074400;28;20043;-70
2023/01/02 08:06:42;;;;;;;3.67;0.98;;;8.90;99.90;;;;;;5041231;28;20070;-70
2023/01/02 08:09:08;;;;;;;2.70;1.10;;;8.90;99.90;;;;;;5078788;28;20040;-70
2023/01/02 08:11:34;;;;;;;3.88;0.95;;;8.80;99.90;;;;;;5063971;28;20046;-71
2023/01/02 08:13:59;;;;;;;3.22;1.20;;;8.80;99.90;;;;;;5059950;28;20056;-71
2023/01/02 08:16:25;;;;;;;3.83;1.15;;;8.70;99.90;;;;;;5056059;28;20048;-70
2023/01/02 08:18:54;;;;;;;3.00;1.15;;;8.70;99.90;;;;;;5072597;28;20051;-70
2023/01/02 08:21:25;;;;;;;5.10;1.35;;;8.70;99.90;;;;;;5048440;28;20055;-70
2023/01/02 08:23:51;;;;;;;3.75;1.30;;;8.70;99.90;;;;;;5066417;28;20040;-72
2023/01/02 08:26:17;;;;;;;4.95;1.75;;;8.70;99.90;;;;;;5040395;28;21264;-71
2023/01/02 08:28:43;;;;;;;6.53;1.63;;;8.70;99.90;;;;;;5067313;28;20538;-72
2023/01/02 08:31:18;;;;;;;9.27;1.75;;;8.70;99.90;;;;;;5051628;28;20113;-71
2023/01/02 08:33:44;;;;;;;7.20;1.98;;;8.70;99.90;;;;;;5049968;28;20715;-73
2023/01/02 08:36:10;;;;;;;6.78;2.00;;;8.70;99.90;;;;;;5052136;28;20097;-70
2023/01/02 08:38:36;;;;;;;5.53;1.75;;;8.80;99.90;;;;;;5052347;28;20127;-70
2023/01/02 08:41:02;;;;;;;6.00;1.73;;;8.70;99.90;;;;;;5070784;28;20051;-71
2023/01/02 08:43:28;;;;;;;6.40;1.70;;;8.70;99.90;;;;;;5036918;28;20036;-71
2023/01/02 08:45:54;;;;;;;5.20;2.13;;;8.70;99.90;;;;;;5071028;28;20135;-71
2023/01/02 08:48:20;;;;;;;6.47;2.40;;;8.70;99.90;;;;;;5050120;28;20045;-72
2023/01/02 08:50:46;;;;;;;7.57;2.70;;;8.70;99.90;;;;;;5071383;28;20572;-71
2023/01/02 08:53:12;;;;;;;6.60;2.50;;;8.70;99.90;;;;;;5055641;28;20101;-71
2023/01/02 08:55:38;;;;;;;6.88;2.30;;;8.70;99.90;;;;;;5046881;28;20040;-70
2023/01/02 08:58:03;;;;;;;4.95;1.83;;;8.70;99.90;;;;;;5058133;28;20051;-70
2023/01/02 09:00:29;;;;;;;4.32;1.35;;;8.70;99.90;;;;;;5053567;28;20584;-71
2023/01/02 09:02:55;;;;;;;4.80;1.52;;;8.80;99.90;;;;;;5070583;28;20945;-69
2023/01/02 09:05:23;;;;;;;5.30;1.50;;;8.70;99.90;;;;;;5032807;28;20066;-71
2023/01/02 09:07:52;;;;;;;4.90;1.30;;;8.70;99.90;;;;;;5066398;28;20032;-71
2023/01/02 09:10:18;;;;;;;2.80;1.20;;;8.70;99.90;;;;;;5044940;28;20052;-71
2023/01/02 09:12:44;;;;;;;4.65;1.45;;;8.60;99.90;;;;;;5047527;28;20413;-72
2023/01/02 09:15:10;;;;;;;4.70;1.80;;;8.70;99.90;;;;;;5052902;28;20088;-72
2023/01/02 09:17:36;;;;;;;6.70;2.10;;;8.60;99.90;;;;;;5046810;28;20087;-71
2023/01/02 09:20:02;;;;;;;5.70;2.38;;;8.60;99.90;;;;;;5045989;28;20431;-71
2023/01/02 09:22:27;;;;;;;6.95;2.30;;;8.60;99.90;;;;;;5032997;28;20036;-71
2023/01/02 09:24:53;;;;;;;4.75;1.92;;;8.60;99.90;;;;;;5050605;28;20188;-71
2023/01/02 09:27:22;;;;;;;8.43;2.47;;;8.60;99.90;;;;;;5056307;28;20135;-72
2023/01/02 09:29:48;;;;;;;5.40;2.20;;;8.60;99.90;;;;;;5066585;28;20117;-70
2023/01/02 09:32:13;;;;;;;7.53;2.22;;;8.60;99.90;;;;;;5051664;28;20091;-71
2023/01/02 09:34:39;;;;;;;4.85;1.90;;;8.60;99.90;;;;;;5029103;28;20059;-71
2023/01/02 09:37:05;;;;;;;6.65;2.55;;;8.60;99.90;;;;;;5050044;28;20048;-72
2023/01/02 09:39:31;;;;;;;5.85;2.30;;;8.60;99.90;;;;;;5032705;28;20044;-71
2023/01/02 09:41:59;;;;;;;5.88;2.42;;;8.60;99.90;;;;;;5068359;28;20422;-71
2023/01/02 09:44:48;;;;;;;7.82;2.45;;;8.60;99.90;;;;;;5058999;28;20149;-71
2023/01/02 09:47:23;;;;;;;6.32;2.50;;;8.60;99.90;;;;;;5038659;28;20048;-70
2023/01/02 09:49:51;;;;;;;8.32;3.00;;;8.60;99.90;;;;;;5069960;28;20044;-71
2023/01/02 09:52:19;;;;;;;9.15;2.92;;;8.60;99.90;;;;;;5039709;28;20094;-70
2023/01/02 09:54:45;;;;;;;9.80;3.05;;;8.60;99.90;;;;;;5060646;28;20052;-70
2023/01/02 09:57:11;;;;;;;8.88;2.80;;;8.60;99.90;;;;;;5049988;28;20468;-71
2023/01/02 10:00:09;;;;;;;7.82;3.25;;;8.60;99.90;;;;;;5037499;28;20048;-72
2023/01/02 10:02:53;;;;;;;8.88;3.42;;;8.60;99.90;;;;;;5036234;28;20047;-71
2023/01/02 10:05:40;;;;;;;7.68;2.80;;;8.60;99.90;;;;;;5035770;28;20059;-71
2023/01/02 10:08:33;;;;;;;6.38;3.03;;;8.50;99.90;;;;;;5030517;28;20787;-72
2023/01/02 10:11:07;;;;;;;8.60;2.88;;;8.50;99.90;;;;;;5034909;28;20451;-71
2023/01/02 10:13:38;;;;;;;7.45;2.78;;;8.50;99.90;;;;;;5075868;28;20138;-70
2023/01/02 10:16:08;;;;;;;8.38;2.92;;;8.50;99.90;;;;;;5064438;28;20059;-70
2023/01/02 10:18:40;;;;;;;8.27;2.85;;;8.50;99.90;;;;;;5049429;28;20050;-70
2023/01/02 10:21:19;;;;;;;8.43;2.88;;;8.50;99.90;;;;;;5072865;28;20042;-71
2023/01/02 10:23:51;;;;;;;8.02;2.65;;;8.50;99.90;;;;;;5055909;28;20044;-71
2023/01/02 10:26:17;;;;;;;;;;;8.50;99.90;;;;;;5050280;28;20056;-71
2023/01/02 10:28:57;;;;;;;6.35;2.28;;;8.50;99.90;;;;;;5055769;28;19924;-73
2023/01/02 10:31:43;;;;;;;5.97;1.70;;;8.50;99.90;;;;;;5033328;28;20048;-71
2023/01/02 10:34:16;;;;;;;4.35;1.25;;;8.50;99.90;;;;;;5039526;28;20123;-70
2023/01/02 10:36:44;;;;;;;5.57;1.27;;;8.80;99.90;;;;;;5035658;28;20036;-70
2023/01/02 10:39:17;;;;;;;4.53;1.50;;;8.50;99.90;;;;;;5019846;28;20064;-71
2023/01/02 10:41:48;;;;;;;4.18;1.65;;;8.50;99.90;;;;;;5053820;28;20117;-71
2023/01/02 10:44:31;;;;;;;8.32;1.90;;;8.50;99.90;;;;;;5033573;28;20048;-71
2023/01/02 10:47:08;;;;;;;6.38;1.77;;;8.50;99.90;;;;;;5036430;28;20039;-71
2023/01/02 10:49:36;;;;;;;7.53;2.47;;;8.50;99.90;;;;;;5036750;28;20052;-71
2023/01/02 10:52:28;;;;;;;9.95;2.20;;;8.50;99.90;;;;;;5060355;28;20048;-71
2023/01/02 10:54:55;;;;;;;;;;;8.60;99.90;;;;;;5030005;28;20067;-72
2023/01/02 10:57:25;;;;;;;7.22;2.17;;;8.50;99.90;;;;;;5023766;28;19928;-71
2023/01/02 10:59:57;;;;;;;6.03;2.10;;;8.60;99.90;;;;;;5053887;28;21648;-70
2023/01/02 11:02:29;;;;;;;7.95;2.40;;;8.60;99.90;;;;;;5023156;28;20047;-69
2023/01/02 11:05:00;;;;;;;7.68;1.90;;;8.60;99.90;;;;;;5050432;28;20123;-70
2023/01/02 11:07:30;;;;;;;6.80;2.28;;;8.60;99.90;;;;;;5056932;28;20070;-70
2023/01/02 11:09:56;;;;;;;7.68;1.92;;;8.70;99.90;;;;;;5035216;28;20075;-72
2023/01/02 11:12:22;;;;;;;8.63;2.10;;;8.70;99.90;;;;;;5043472;28;20669;-70
2023/01/02 11:14:49;;;;;;;5.75;1.70;;;8.70;99.90;;;;;;5036981;28;20048;-71
2023/01/02 11:17:23;;;;;;;7.75;1.90;;;8.70;99.90;;;;;;5044018;28;20052;-71
2023/01/02 11:19:54;;;;;;;6.43;2.47;;;8.70;99.90;;;;;;5026198;28;20048;-72
2023/01/02 11:22:22;;;;;;;9.93;2.08;;;8.70;99.90;;;;;;5031371;28;20768;-71
2023/01/02 11:25:00;;;;;;;9.73;2.15;;;8.70;99.90;;;;;;5065211;28;20052;-71
2023/01/02 11:27:35;;;;;;;5.65;1.83;;;8.70;99.90;;;;;;5054121;28;20072;-71
2023/01/02 11:30:02;;;;;;;8.10;1.80;;;8.70;99.90;;;;;;5055535;28;20097;-73
2023/01/02 11:32:37;;;;;;;9.00;2.17;;;8.70;99.90;;;;;;5056275;28;20052;-71
2023/01/02 11:35:04;;;;;;;10.95;2.17;;;8.70;99.90;;;;;;5044736;28;20413;-70
2023/01/02 11:37:30;;;;;;;10.48;2.42;;;8.80;99.90;;;;;;5044966;28;20157;-71
2023/01/02 11:40:26;;;;;;;8.73;1.95;;;8.80;99.90;;;;;;5052077;28;20090;-71
2023/01/02 11:45:39;;;;;;;7.35;1.98;;;8.80;99.90;;;;;;5059788;28;20989;-71
2023/01/02 11:48:20;;;;;;;14.35;2.30;;;8.80;99.90;;;;;;5042663;28;20501;-69
2023/01/02 11:50:47;;;;;;;9.23;1.70;;;8.80;99.90;;;;;;5060984;28;20500;-70
2023/01/02 11:53:13;;;;;;;9.05;2.20;;;8.80;99.90;;;;;;5046728;28;20676;-70
2023/01/02 11:55:48;;;;;;;10.80;1.73;;;8.80;99.90;;;;;;5056144;28;20089;-70
2023/01/02 11:58:29;;;;;;;8.68;2.08;;;8.80;99.90;;;;;;5069601;28;20448;-70
2023/01/02 12:01:24;;;;;;;9.77;1.90;;;8.80;99.90;;;;;;5033117;28;20409;-70
2023/01/02 12:03:50;;;;;;;10.40;2.25;;;8.80;99.90;;;;;;5018426;28;20057;-70
2023/01/02 12:06:22;;;;;;;8.32;1.42;;;8.80;99.90;;;;;;5054136;28;20116;-70
2023/01/02 12:08:50;;;;;;;10.70;1.63;;;8.80;99.90;;;;;;5059523;28;20092;-70
2023/01/02 12:11:24;;;;;;;14.75;2.33;;;8.80;99.90;;;;;;5049202;28;20556;-72
2023/01/02 12:14:09;;;;;;;9.77;2.10;;;8.80;99.90;;;;;;5073794;28;20064;-70
2023/01/02 12:16:46;;;;;;;8.57;1.38;;;8.70;99.90;;;;;;5051524;28;20714;-71
2023/01/02 12:19:50;;;;;;;14.57;1.65;;;8.70;99.90;;;;;;5045282;28;20656;-71
2023/01/02 12:22:25;;;;;;;10.50;1.90;;;8.70;99.90;;;;;;5055792;28;20153;-70
2023/01/02 12:25:28;;;;;;;8.05;1.85;;;8.70;99.90;;;;;;5044089;28;20075;-72
2023/01/02 12:28:21;;;;;;;13.50;2.03;;;8.70;99.90;;;;;;5071225;28;20298;-71
2023/01/02 12:31:07;;;;;;;19.30;2.63;;;8.70;99.90;;;;;;5077995;28;20044;-71
2023/01/02 12:34:08;;;;;;;14.32;1.60;;;8.80;99.90;;;;;;5048163;28;20056;-70
2023/01/02 12:36:42;;;;;;;11.80;2.63;;;8.80;99.90;;;;;;5066249;28;20095;-70
2023/01/02 12:39:48;;;;;;;11.38;1.60;;;8.80;99.90;;;;;;5053529;28;20046;-70
2023/01/02 12:42:50;;;;;;;14.43;2.45;;;8.80;99.90;;;;;;5073396;28;20074;-70
2023/01/02 12:45:29;;;;;;;11.93;1.73;;;8.80;99.90;;;;;;5036754;28;20056;-70
2023/01/02 12:48:02;;;;;;;8.20;1.65;;;8.80;99.90;;;;;;5034111;28;20050;-71
2023/01/02 12:50:56;;;;;;;12.98;2.47;;;8.80;99.90;;;;;;5053252;28;20127;-71
2023/01/02 12:53:51;;;;;;;10.45;1.83;;;8.80;99.90;;;;;;5035058;28;20150;-69
2023/01/02 12:56:42;;;;;;;11.07;1.63;;;8.80;99.90;;;;;;5037615;28;20057;-71
2023/01/02 12:59:14;;;;;;;11.73;2.05;;;8.80;99.90;;;;;;5060719;28;20056;-70
2023/01/02 13:01:53;;;;;;;;;;;8.80;99.90;;;;;;5059953;28;20067;-71
2023/01/02 13:04:44;;;;;;;9.63;1.98;;;8.80;99.90;;;;;;5072721;28;19929;-70
2023/01/02 13:07:26;;;;;;;17.38;1.83;;;8.80;99.90;;;;;;5037293;28;20040;-72
2023/01/02 13:09:55;;;;;;;11.18;1.85;;;8.80;99.90;;;;;;5038315;28;20044;-70
2023/01/02 13:12:25;;;;;;;13.52;2.45;;;8.80;99.90;;;;;;5072149;28;20060;-71
2023/01/02 13:15:15;;;;;;;14.75;3.10;;;8.80;99.90;;;;;;5073367;28;20048;-70